sensor_id;sensor_type;location;lat;lon;timestamp;P1;durP1;ratioP1;P2;durP2;ratioP2
20140;SDS011;10231;47.702;9.826;2023-07-13T00:01:58;4.10;;;3.20;;
20140;SDS011;10231;47.702;9.826;2023-07-13T00:04:24;3.70;;;3.40;;
20140;SDS011;10231;47.702;9.826;2023-07-13T00:06:51;3.60;;;3.30;;
20140;SDS011;10231;47.702;9.826;2023-07-13T00:09:17;4.13;;;2.93;;
20140;SDS011;10231;47.702;9.826;2023-07-13T00:11:44;4.07;;;3.30;;
20140;SDS011;10231;47.702;9.826;2023-07-13T00:14:12;3.17;;;2.97;;
20140;SDS011;10231;47.702;9.826;2023-07-13T00:16:40;4.53;;;3.40;;
20140;SDS011;10231;47.702;9.826;2023-07-13T00:19:08;4.10;;;3.57;;
20140;SDS011;10231;47.702;9.826;2023-07-13T00:21:35;4.07;;;3.57;;
20140;SDS011;10231;47.702;9.826;2023-07-13T00:24:01;3.93;;;3.63;;
20140;SDS011;10231;47.702;9.826;2023-07-13T00:26:26;3.83;;;2.80;;
20140;SDS011;10231;47.702;9.826;2023-07-13T00:28:52;3.90;;;3.50;;
20140;SDS011;10231;47.702;9.826;2023-07-13T00:31:17;3.50;;;3.20;;
20140;SDS011;10231;47.702;9.826;2023-07-13T00:33:43;4.93;;;3.47;;
20140;SDS011;10231;47.702;9.826;2023-07-13T00:36:09;3.57;;;3.07;;
20140;SDS011;10231;47.702;9.826;2023-07-13T00:38:36;3.20;;;2.90;;
20140;SDS011;10231;47.702;9.826;2023-07-13T00:41:02;3.60;;;3.13;;
20140;SDS011;10231;47.702;9.826;2023-07-13T00:43:28;3.77;;;3.03;;
20140;SDS011;10231;47.702;9.826;2023-07-13T00:48:25;3.90;;;3.60;;
20140;SDS011;10231;47.702;9.826;2023-07-13T00:51:01;3.47;;;3.17;;
20140;SDS011;10231;47.702;9.826;2023-07-13T00:53:27;3.43;;;3.13;;
20140;SDS011;10231;47.702;9.826;2023-07-13T00:55:57;5.83;;;3.33;;
20140;SDS011;10231;47.702;9.826;2023-07-13T00:58:24;3.80;;;3.00;;
20140;SDS011;10231;47.702;9.826;2023-07-13T01:00:51;3.10;;;2.80;;
20140;SDS011;10231;47.702;9.826;2023-07-13T01:03:17;3.83;;;3.50;;
20140;SDS011;10231;47.702;9.826;2023-07-13T01:05:43;3.93;;;3.23;;
20140;SDS011;10231;47.702;9.826;2023-07-13T01:08:12;5.20;;;3.47;;
20140;SDS011;10231;47.702;9.826;2023-07-13T01:10:37;4.40;;;3.30;;
20140;SDS011;10231;47.702;9.826;2023-07-13T01:13:06;3.13;;;2.83;;
20140;SDS011;10231;47.702;9.826;2023-07-13T01:18:02;3.43;;;2.90;;
20140;SDS011;10231;47.702;9.826;2023-07-13T01:20:28;3.80;;;3.10;;
20140;SDS011;10231;47.702;9.826;2023-07-13T01:22:54;3.37;;;3.07;;
20140;SDS011;10231;47.702;9.826;2023-07-13T01:25:20;4.17;;;2.77;;
20140;SDS011;10231;47.702;9.826;2023-07-13T01:27:46;3.60;;;3.30;;
20140;SDS011;10231;47.702;9.826;2023-07-13T01:30:11;3.07;;;2.83;;
20140;SDS011;10231;47.702;9.826;2023-07-13T01:32:37;3.37;;;3.17;;
20140;SDS011;10231;47.702;9.826;2023-07-13T01:35:07;3.23;;;2.93;;
20140;SDS011;10231;47.702;9.826;2023-07-13T01:37:32;3.47;;;3.17;;
20140;SDS011;10231;47.702;9.826;2023-07-13T01:40:01;4.00;;;2.83;;
20140;SDS011;10231;47.702;9.826;2023-07-13T01:42:28;2.87;;;2.67;;
20140;SDS011;10231;47.702;9.826;2023-07-13T01:44:54;3.00;;;2.80;;
20140;SDS011;10231;47.702;9.826;2023-07-13T01:47:19;2.63;;;2.43;;
20140;SDS011;10231;47.702;9.826;2023-07-13T01:49:45;3.33;;;2.90;;
20140;SDS011;10231;47.702;9.826;2023-07-13T01:52:12;2.83;;;2.63;;
20140;SDS011;10231;47.702;9.826;2023-07-13T01:54:37;5.40;;;2.83;;
20140;SDS011;10231;47.702;9.826;2023-07-13T01:57:03;3.00;;;2.80;;
20140;SDS011;10231;47.702;9.826;2023-07-13T01:59:29;3.80;;;2.70;;
20140;SDS011;10231;47.702;9.826;2023-07-13T02:01:54;3.17;;;2.53;;
20140;SDS011;10231;47.702;9.826;2023-07-13T02:04:20;3.10;;;2.40;;
20140;SDS011;10231;47.702;9.826;2023-07-13T02:06:45;3.33;;;2.83;;
20140;SDS011;10231;47.702;9.826;2023-07-13T02:09:11;4.10;;;2.70;;
20140;SDS011;10231;47.702;9.826;2023-07-13T02:11:37;3.50;;;2.60;;
20140;SDS011;10231;47.702;9.826;2023-07-13T02:14:02;4.87;;;2.60;;
20140;SDS011;10231;47.702;9.826;2023-07-13T02:16:28;5.47;;;2.27;;
20140;SDS011;10231;47.702;9.826;2023-07-13T02:18:55;2.77;;;2.53;;
20140;SDS011;10231;47.702;9.826;2023-07-13T02:21:20;4.83;;;3.00;;
20140;SDS011;10231;47.702;9.826;2023-07-13T02:23:47;3.70;;;2.40;;
20140;SDS011;10231;47.702;9.826;2023-07-13T02:26:13;2.37;;;2.17;;
20140;SDS011;10231;47.702;9.826;2023-07-13T02:28:38;4.10;;;2.07;;
20140;SDS011;10231;47.702;9.826;2023-07-13T02:31:11;2.50;;;2.30;;
20140;SDS011;10231;47.702;9.826;2023-07-13T02:33:38;3.67;;;2.27;;
20140;SDS011;10231;47.702;9.826;2023-07-13T02:36:04;2.70;;;2.50;;
20140;SDS011;10231;47.702;9.826;2023-07-13T02:38:31;3.53;;;2.67;;
20140;SDS011;10231;47.702;9.826;2023-07-13T02:41:01;5.63;;;3.07;;
20140;SDS011;10231;47.702;9.826;2023-07-13T02:43:27;2.90;;;2.70;;
20140;SDS011;10231;47.702;9.826;2023-07-13T02:45:53;3.47;;;2.60;;
20140;SDS011;10231;47.702;9.826;2023-07-13T02:48:18;2.67;;;2.47;;
20140;SDS011;10231;47.702;9.826;2023-07-13T02:50:44;3.47;;;2.53;;
20140;SDS011;10231;47.702;9.826;2023-07-13T02:53:10;2.23;;;2.03;;
20140;SDS011;10231;47.702;9.826;2023-07-13T02:55:35;2.93;;;2.60;;
20140;SDS011;10231;47.702;9.826;2023-07-13T02:58:01;3.03;;;2.43;;
20140;SDS011;10231;47.702;9.826;2023-07-13T03:00:27;3.03;;;2.70;;
20140;SDS011;10231;47.702;9.826;2023-07-13T03:02:54;2.60;;;2.40;;
20140;SDS011;10231;47.702;9.826;2023-07-13T03:05:22;2.90;;;2.70;;
20140;SDS011;10231;47.702;9.826;2023-07-13T03:07:48;2.50;;;2.30;;
20140;SDS011;10231;47.702;9.826;2023-07-13T03:10:14;3.63;;;3.13;;
20140;SDS011;10231;47.702;9.826;2023-07-13T03:12:41;2.73;;;2.50;;
20140;SDS011;10231;47.702;9.826;2023-07-13T03:15:06;4.13;;;2.70;;
20140;SDS011;10231;47.702;9.826;2023-07-13T03:17:32;3.27;;;2.93;;
20140;SDS011;10231;47.702;9.826;2023-07-13T03:19:58;3.07;;;2.73;;
20140;SDS011;10231;47.702;9.826;2023-07-13T03:22:23;3.80;;;3.03;;
20140;SDS011;10231;47.702;9.826;2023-07-13T03:24:49;4.00;;;3.60;;
20140;SDS011;10231;47.702;9.826;2023-07-13T03:27:15;3.90;;;3.50;;
20140;SDS011;10231;47.702;9.826;2023-07-13T03:29:41;3.63;;;3.33;;
20140;SDS011;10231;47.702;9.826;2023-07-13T03:32:07;5.70;;;3.67;;
20140;SDS011;10231;47.702;9.826;2023-07-13T03:34:33;5.60;;;3.40;;
20140;SDS011;10231;47.702;9.826;2023-07-13T03:36:58;2.97;;;2.70;;
20140;SDS011;10231;47.702;9.826;2023-07-13T03:39:24;3.33;;;2.93;;
20140;SDS011;10231;47.702;9.826;2023-07-13T03:41:49;4.00;;;3.00;;
20140;SDS011;10231;47.702;9.826;2023-07-13T03:44:16;3.43;;;3.13;;
20140;SDS011;10231;47.702;9.826;2023-07-13T03:46:42;5.37;;;3.13;;
20140;SDS011;10231;47.702;9.826;2023-07-13T03:49:08;3.20;;;2.93;;
20140;SDS011;10231;47.702;9.826;2023-07-13T03:51:35;3.20;;;3.00;;
20140;SDS011;10231;47.702;9.826;2023-07-13T03:54:00;4.17;;;2.83;;
20140;SDS011;10231;47.702;9.826;2023-07-13T03:56:27;3.83;;;3.23;;
20140;SDS011;10231;47.702;9.826;2023-07-13T03:58:53;3.07;;;2.40;;
20140;SDS011;10231;47.702;9.826;2023-07-13T04:01:19;3.20;;;2.90;;
20140;SDS011;10231;47.702;9.826;2023-07-13T04:03:46;3.63;;;3.33;;
20140;SDS011;10231;47.702;9.826;2023-07-13T04:06:14;3.10;;;2.90;;
20140;SDS011;10231;47.702;9.826;2023-07-13T04:08:46;5.17;;;3.07;;
20140;SDS011;10231;47.702;9.826;2023-07-13T04:11:14;3.53;;;2.90;;
20140;SDS011;10231;47.702;9.826;2023-07-13T04:13:39;5.97;;;3.40;;
20140;SDS011;10231;47.702;9.826;2023-07-13T04:16:05;3.63;;;3.20;;
20140;SDS011;10231;47.702;9.826;2023-07-13T04:18:30;2.70;;;2.50;;
20140;SDS011;10231;47.702;9.826;2023-07-13T04:20:56;5.80;;;3.17;;
20140;SDS011;10231;47.702;9.826;2023-07-13T04:23:21;3.63;;;2.67;;
20140;SDS011;10231;47.702;9.826;2023-07-13T04:25:47;5.93;;;2.73;;
20140;SDS011;10231;47.702;9.826;2023-07-13T04:28:15;3.23;;;2.63;;
20140;SDS011;10231;47.702;9.826;2023-07-13T04:30:42;3.20;;;2.87;;
20140;SDS011;10231;47.702;9.826;2023-07-13T04:33:08;3.27;;;2.83;;
20140;SDS011;10231;47.702;9.826;2023-07-13T04:35:34;3.33;;;2.60;;
20140;SDS011;10231;47.702;9.826;2023-07-13T04:37:59;2.90;;;2.70;;
20140;SDS011;10231;47.702;9.826;2023-07-13T04:40:26;3.60;;;2.80;;
20140;SDS011;10231;47.702;9.826;2023-07-13T04:42:52;3.27;;;2.70;;
20140;SDS011;10231;47.702;9.826;2023-07-13T04:45:18;2.83;;;2.57;;
20140;SDS011;10231;47.702;9.826;2023-07-13T04:47:44;3.77;;;2.67;;
20140;SDS011;10231;47.702;9.826;2023-07-13T04:50:09;3.67;;;2.50;;
20140;SDS011;10231;47.702;9.826;2023-07-13T04:52:40;3.27;;;2.50;;
20140;SDS011;10231;47.702;9.826;2023-07-13T04:55:07;2.30;;;2.20;;
20140;SDS011;10231;47.702;9.826;2023-07-13T04:57:33;3.43;;;3.03;;
20140;SDS011;10231;47.702;9.826;2023-07-13T04:59:59;2.97;;;2.73;;
20140;SDS011;10231;47.702;9.826;2023-07-13T05:02:26;3.40;;;2.67;;
20140;SDS011;10231;47.702;9.826;2023-07-13T05:04:53;2.80;;;2.60;;
20140;SDS011;10231;47.702;9.826;2023-07-13T05:07:18;3.70;;;2.83;;
20140;SDS011;10231;47.702;9.826;2023-07-13T05:09:44;2.90;;;2.70;;
20140;SDS011;10231;47.702;9.826;2023-07-13T05:12:09;3.90;;;2.90;;
20140;SDS011;10231;47.702;9.826;2023-07-13T05:14:35;4.20;;;3.13;;
20140;SDS011;10231;47.702;9.826;2023-07-13T05:17:01;3.90;;;3.07;;
20140;SDS011;10231;47.702;9.826;2023-07-13T05:19:27;4.33;;;3.23;;
20140;SDS011;10231;47.702;9.826;2023-07-13T05:21:52;3.50;;;3.10;;
20140;SDS011;10231;47.702;9.826;2023-07-13T05:24:18;3.10;;;2.80;;
20140;SDS011;10231;47.702;9.826;2023-07-13T05:26:43;3.43;;;3.03;;
20140;SDS011;10231;47.702;9.826;2023-07-13T05:29:09;4.00;;;3.03;;
20140;SDS011;10231;47.702;9.826;2023-07-13T05:31:35;3.03;;;2.40;;
20140;SDS011;10231;47.702;9.826;2023-07-13T05:34:01;4.40;;;2.83;;
20140;SDS011;10231;47.702;9.826;2023-07-13T05:36:27;2.40;;;2.20;;
20140;SDS011;10231;47.702;9.826;2023-07-13T05:38:52;2.23;;;2.10;;
20140;SDS011;10231;47.702;9.826;2023-07-13T05:41:18;2.70;;;2.50;;
20140;SDS011;10231;47.702;9.826;2023-07-13T05:43:43;3.97;;;2.17;;
20140;SDS011;10231;47.702;9.826;2023-07-13T05:46:09;2.87;;;2.13;;
20140;SDS011;10231;47.702;9.826;2023-07-13T05:48:34;2.40;;;2.20;;
20140;SDS011;10231;47.702;9.826;2023-07-13T05:51:00;2.80;;;2.60;;
20140;SDS011;10231;47.702;9.826;2023-07-13T05:53:26;3.87;;;2.50;;
20140;SDS011;10231;47.702;9.826;2023-07-13T05:55:53;3.80;;;2.43;;
20140;SDS011;10231;47.702;9.826;2023-07-13T05:58:19;2.40;;;2.20;;
20140;SDS011;10231;47.702;9.826;2023-07-13T06:00:46;2.07;;;1.97;;
20140;SDS011;10231;47.702;9.826;2023-07-13T06:03:12;2.70;;;2.13;;
20140;SDS011;10231;47.702;9.826;2023-07-13T06:05:38;2.67;;;2.00;;
20140;SDS011;10231;47.702;9.826;2023-07-13T06:08:04;2.40;;;2.20;;
20140;SDS011;10231;47.702;9.826;2023-07-13T06:10:34;2.60;;;2.40;;
20140;SDS011;10231;47.702;9.826;2023-07-13T06:13:00;2.40;;;2.10;;
20140;SDS011;10231;47.702;9.826;2023-07-13T06:15:26;2.90;;;2.70;;
20140;SDS011;10231;47.702;9.826;2023-07-13T06:17:51;2.63;;;2.43;;
20140;SDS011;10231;47.702;9.826;2023-07-13T06:20:17;4.90;;;2.57;;
20140;SDS011;10231;47.702;9.826;2023-07-13T06:22:42;2.77;;;2.47;;
20140;SDS011;10231;47.702;9.826;2023-07-13T06:25:08;2.93;;;2.77;;
20140;SDS011;10231;47.702;9.826;2023-07-13T06:27:34;4.03;;;2.37;;
20140;SDS011;10231;47.702;9.826;2023-07-13T06:29:59;2.83;;;2.60;;
20140;SDS011;10231;47.702;9.826;2023-07-13T06:32:25;4.17;;;2.70;;
20140;SDS011;10231;47.702;9.826;2023-07-13T06:34:50;4.10;;;2.73;;
20140;SDS011;10231;47.702;9.826;2023-07-13T06:37:16;2.50;;;2.27;;
20140;SDS011;10231;47.702;9.826;2023-07-13T06:39:43;2.50;;;2.30;;
20140;SDS011;10231;47.702;9.826;2023-07-13T06:42:08;3.10;;;2.90;;
20140;SDS011;10231;47.702;9.826;2023-07-13T06:44:34;2.70;;;2.50;;
20140;SDS011;10231;47.702;9.826;2023-07-13T06:47:00;2.33;;;2.17;;
20140;SDS011;10231;47.702;9.826;2023-07-13T06:49:25;2.70;;;2.50;;
20140;SDS011;10231;47.702;9.826;2023-07-13T06:51:51;2.37;;;2.20;;
20140;SDS011;10231;47.702;9.826;2023-07-13T06:54:16;2.23;;;2.03;;
20140;SDS011;10231;47.702;9.826;2023-07-13T06:56:42;3.10;;;2.40;;
20140;SDS011;10231;47.702;9.826;2023-07-13T06:59:07;3.37;;;2.30;;
20140;SDS011;10231;47.702;9.826;2023-07-13T07:01:33;2.70;;;2.50;;
20140;SDS011;10231;47.702;9.826;2023-07-13T07:03:59;3.10;;;2.50;;
20140;SDS011;10231;47.702;9.826;2023-07-13T07:06:24;2.60;;;2.40;;
20140;SDS011;10231;47.702;9.826;2023-07-13T07:08:50;2.97;;;2.53;;
20140;SDS011;10231;47.702;9.826;2023-07-13T07:11:19;3.00;;;2.67;;
20140;SDS011;10231;47.702;9.826;2023-07-13T07:13:50;3.20;;;2.43;;
20140;SDS011;10231;47.702;9.826;2023-07-13T07:16:16;3.77;;;3.00;;
20140;SDS011;10231;47.702;9.826;2023-07-13T07:18:43;3.07;;;2.53;;
20140;SDS011;10231;47.702;9.826;2023-07-13T07:21:08;3.87;;;2.80;;
20140;SDS011;10231;47.702;9.826;2023-07-13T07:23:34;2.47;;;2.27;;
20140;SDS011;10231;47.702;9.826;2023-07-13T07:26:00;2.50;;;2.27;;
20140;SDS011;10231;47.702;9.826;2023-07-13T07:28:26;2.80;;;2.60;;
20140;SDS011;10231;47.702;9.826;2023-07-13T07:30:53;4.77;;;2.63;;
20140;SDS011;10231;47.702;9.826;2023-07-13T07:33:20;2.90;;;2.33;;
20140;SDS011;10231;47.702;9.826;2023-07-13T07:35:45;4.37;;;2.90;;
20140;SDS011;10231;47.702;9.826;2023-07-13T07:38:11;3.70;;;2.70;;
20140;SDS011;10231;47.702;9.826;2023-07-13T07:40:37;2.53;;;2.30;;
20140;SDS011;10231;47.702;9.826;2023-07-13T07:43:05;2.50;;;2.30;;
20140;SDS011;10231;47.702;9.826;2023-07-13T07:45:31;3.27;;;2.63;;
20140;SDS011;10231;47.702;9.826;2023-07-13T07:47:56;3.77;;;2.40;;
20140;SDS011;10231;47.702;9.826;2023-07-13T07:50:24;3.33;;;2.30;;
20140;SDS011;10231;47.702;9.826;2023-07-13T07:52:50;2.40;;;2.20;;
20140;SDS011;10231;47.702;9.826;2023-07-13T07:55:16;3.10;;;2.80;;
20140;SDS011;10231;47.702;9.826;2023-07-13T07:57:41;3.77;;;2.90;;
20140;SDS011;10231;47.702;9.826;2023-07-13T08:00:07;2.67;;;2.50;;
20140;SDS011;10231;47.702;9.826;2023-07-13T08:02:33;3.20;;;3.00;;
20140;SDS011;10231;47.702;9.826;2023-07-13T08:04:58;2.33;;;2.13;;
20140;SDS011;10231;47.702;9.826;2023-07-13T08:07:24;1.83;;;1.70;;
20140;SDS011;10231;47.702;9.826;2023-07-13T08:09:52;2.77;;;2.07;;
20140;SDS011;10231;47.702;9.826;2023-07-13T08:12:18;1.90;;;1.33;;
20140;SDS011;10231;47.702;9.826;2023-07-13T08:14:43;3.60;;;2.47;;
20140;SDS011;10231;47.702;9.826;2023-07-13T08:17:09;2.53;;;2.33;;
20140;SDS011;10231;47.702;9.826;2023-07-13T08:19:34;3.30;;;2.17;;
20140;SDS011;10231;47.702;9.826;2023-07-13T08:22:00;2.87;;;2.03;;
20140;SDS011;10231;47.702;9.826;2023-07-13T08:24:25;2.23;;;1.77;;
20140;SDS011;10231;47.702;9.826;2023-07-13T08:26:51;2.77;;;1.90;;
20140;SDS011;10231;47.702;9.826;2023-07-13T08:29:17;5.27;;;1.80;;
20140;SDS011;10231;47.702;9.826;2023-07-13T08:31:43;2.60;;;2.10;;
20140;SDS011;10231;47.702;9.826;2023-07-13T08:34:08;2.93;;;2.23;;
20140;SDS011;10231;47.702;9.826;2023-07-13T08:36:34;3.17;;;2.37;;
20140;SDS011;10231;47.702;9.826;2023-07-13T08:38:59;3.43;;;3.13;;
20140;SDS011;10231;47.702;9.826;2023-07-13T08:41:25;5.30;;;2.60;;
20140;SDS011;10231;47.702;9.826;2023-07-13T08:43:53;2.80;;;2.60;;
20140;SDS011;10231;47.702;9.826;2023-07-13T08:46:28;3.10;;;2.80;;
20140;SDS011;10231;47.702;9.826;2023-07-13T08:49:04;2.43;;;2.23;;
20140;SDS011;10231;47.702;9.826;2023-07-13T08:51:44;2.77;;;2.50;;
20140;SDS011;10231;47.702;9.826;2023-07-13T08:54:19;3.17;;;2.60;;
20140;SDS011;10231;47.702;9.826;2023-07-13T08:56:52;2.33;;;2.13;;
20140;SDS011;10231;47.702;9.826;2023-07-13T08:59:21;3.87;;;2.13;;
20140;SDS011;10231;47.702;9.826;2023-07-13T09:04:36;3.43;;;2.20;;
20140;SDS011;10231;47.702;9.826;2023-07-13T09:12:40;4.30;;;2.40;;
20140;SDS011;10231;47.702;9.826;2023-07-13T09:15:17;5.30;;;2.37;;
20140;SDS011;10231;47.702;9.826;2023-07-13T09:17:55;3.93;;;2.40;;
20140;SDS011;10231;47.702;9.826;2023-07-13T09:20:27;3.63;;;2.43;;
20140;SDS011;10231;47.702;9.826;2023-07-13T09:22:59;3.03;;;1.80;;
20140;SDS011;10231;47.702;9.826;2023-07-13T09:25:33;2.03;;;1.93;;
20140;SDS011;10231;47.702;9.826;2023-07-13T09:28:10;3.50;;;1.83;;
20140;SDS011;10231;47.702;9.826;2023-07-13T09:30:45;2.70;;;1.97;;
20140;SDS011;10231;47.702;9.826;2023-07-13T09:33:25;3.43;;;1.73;;
20140;SDS011;10231;47.702;9.826;2023-07-13T09:35:54;2.87;;;1.97;;
20140;SDS011;10231;47.702;9.826;2023-07-13T09:38:21;2.43;;;1.43;;
20140;SDS011;10231;47.702;9.826;2023-07-13T09:44:00;3.83;;;1.57;;
20140;SDS011;10231;47.702;9.826;2023-07-13T09:46:37;2.03;;;1.57;;
20140;SDS011;10231;47.702;9.826;2023-07-13T09:49:04;2.93;;;1.60;;
20140;SDS011;10231;47.702;9.826;2023-07-13T09:51:29;2.70;;;1.60;;
20140;SDS011;10231;47.702;9.826;2023-07-13T09:53:55;3.57;;;1.67;;
20140;SDS011;10231;47.702;9.826;2023-07-13T09:56:22;2.50;;;1.67;;
20140;SDS011;10231;47.702;9.826;2023-07-13T09:58:51;2.33;;;1.53;;
20140;SDS011;10231;47.702;9.826;2023-07-13T10:01:18;3.60;;;1.57;;
20140;SDS011;10231;47.702;9.826;2023-07-13T10:03:57;1.70;;;1.60;;
20140;SDS011;10231;47.702;9.826;2023-07-13T10:06:23;2.63;;;2.00;;
20140;SDS011;10231;47.702;9.826;2023-07-13T10:08:51;3.13;;;1.67;;
20140;SDS011;10231;47.702;9.826;2023-07-13T10:11:21;3.30;;;1.93;;
20140;SDS011;10231;47.702;9.826;2023-07-13T10:16:46;3.00;;;1.83;;
20140;SDS011;10231;47.702;9.826;2023-07-13T10:19:19;1.70;;;1.60;;
20140;SDS011;10231;47.702;9.826;2023-07-13T10:21:58;3.40;;;2.10;;
20140;SDS011;10231;47.702;9.826;2023-07-13T10:24:27;4.20;;;2.17;;
20140;SDS011;10231;47.702;9.826;2023-07-13T10:27:01;5.07;;;1.80;;
20140;SDS011;10231;47.702;9.826;2023-07-13T10:29:44;2.93;;;2.30;;
20140;SDS011;10231;47.702;9.826;2023-07-13T10:32:17;1.73;;;1.53;;
20140;SDS011;10231;47.702;9.826;2023-07-13T10:34:46;3.13;;;1.63;;
20140;SDS011;10231;47.702;9.826;2023-07-13T10:37:15;3.90;;;2.27;;
20140;SDS011;10231;47.702;9.826;2023-07-13T10:39:45;2.23;;;2.03;;
20140;SDS011;10231;47.702;9.826;2023-07-13T10:42:13;2.47;;;2.27;;
20140;SDS011;10231;47.702;9.826;2023-07-13T10:44:43;3.27;;;2.33;;
20140;SDS011;10231;47.702;9.826;2023-07-13T10:47:11;2.40;;;2.20;;
20140;SDS011;10231;47.702;9.826;2023-07-13T10:49:40;3.30;;;1.90;;
20140;SDS011;10231;47.702;9.826;2023-07-13T10:52:20;2.00;;;1.80;;
20140;SDS011;10231;47.702;9.826;2023-07-13T10:58:01;3.00;;;2.10;;
20140;SDS011;10231;47.702;9.826;2023-07-13T11:00:30;2.30;;;2.20;;
20140;SDS011;10231;47.702;9.826;2023-07-13T11:02:58;3.83;;;1.90;;
20140;SDS011;10231;47.702;9.826;2023-07-13T11:05:31;2.23;;;1.90;;
20140;SDS011;10231;47.702;9.826;2023-07-13T11:08:13;2.17;;;2.00;;
20140;SDS011;10231;47.702;9.826;2023-07-13T11:11:02;1.97;;;1.87;;
20140;SDS011;10231;47.702;9.826;2023-07-13T11:16:13;3.43;;;1.90;;
20140;SDS011;10231;47.702;9.826;2023-07-13T11:18:45;2.67;;;1.87;;
20140;SDS011;10231;47.702;9.826;2023-07-13T11:21:15;2.53;;;2.33;;
20140;SDS011;10231;47.702;9.826;2023-07-13T11:23:44;3.83;;;1.93;;
20140;SDS011;10231;47.702;9.826;2023-07-13T11:29:08;3.23;;;2.23;;
20140;SDS011;10231;47.702;9.826;2023-07-13T11:31:40;2.37;;;2.17;;
20140;SDS011;10231;47.702;9.826;2023-07-13T11:34:12;3.20;;;2.47;;
20140;SDS011;10231;47.702;9.826;2023-07-13T11:36:41;2.67;;;2.47;;
20140;SDS011;10231;47.702;9.826;2023-07-13T11:39:19;2.00;;;1.80;;
20140;SDS011;10231;47.702;9.826;2023-07-13T11:41:52;2.97;;;2.53;;
20140;SDS011;10231;47.702;9.826;2023-07-13T11:44:22;2.23;;;2.13;;
20140;SDS011;10231;47.702;9.826;2023-07-13T11:46:50;2.73;;;2.10;;
20140;SDS011;10231;47.702;9.826;2023-07-13T11:49:19;2.33;;;2.13;;
20140;SDS011;10231;47.702;9.826;2023-07-13T11:51:45;5.80;;;2.50;;
20140;SDS011;10231;47.702;9.826;2023-07-13T11:54:25;2.63;;;2.40;;
20140;SDS011;10231;47.702;9.826;2023-07-13T11:56:57;3.20;;;2.90;;
20140;SDS011;10231;47.702;9.826;2023-07-13T11:59:47;2.70;;;2.50;;
20140;SDS011;10231;47.702;9.826;2023-07-13T12:02:16;2.77;;;2.50;;
20140;SDS011;10231;47.702;9.826;2023-07-13T12:04:49;3.50;;;2.30;;
20140;SDS011;10231;47.702;9.826;2023-07-13T12:07:17;2.53;;;2.33;;
20140;SDS011;10231;47.702;9.826;2023-07-13T12:09:43;2.50;;;2.30;;
20140;SDS011;10231;47.702;9.826;2023-07-13T12:12:13;2.10;;;2.00;;
20140;SDS011;10231;47.702;9.826;2023-07-13T12:14:42;3.73;;;2.53;;
20140;SDS011;10231;47.702;9.826;2023-07-13T12:17:13;4.43;;;2.83;;
20140;SDS011;10231;47.702;9.826;2023-07-13T12:19:50;3.00;;;2.73;;
20140;SDS011;10231;47.702;9.826;2023-07-13T12:22:18;3.27;;;2.57;;
20140;SDS011;10231;47.702;9.826;2023-07-13T12:24:45;3.33;;;2.17;;
20140;SDS011;10231;47.702;9.826;2023-07-13T12:27:19;3.47;;;2.30;;
20140;SDS011;10231;47.702;9.826;2023-07-13T12:30:01;3.13;;;2.50;;
20140;SDS011;10231;47.702;9.826;2023-07-13T12:32:30;3.83;;;2.77;;
20140;SDS011;10231;47.702;9.826;2023-07-13T12:35:06;1.87;;;1.77;;
20140;SDS011;10231;47.702;9.826;2023-07-13T12:37:43;2.07;;;1.70;;
20140;SDS011;10231;47.702;9.826;2023-07-13T12:40:15;2.67;;;2.00;;
20140;SDS011;10231;47.702;9.826;2023-07-13T12:42:44;1.97;;;1.80;;
20140;SDS011;10231;47.702;9.826;2023-07-13T12:47:54;2.87;;;2.13;;
20140;SDS011;10231;47.702;9.826;2023-07-13T12:50:36;2.00;;;1.80;;
20140;SDS011;10231;47.702;9.826;2023-07-13T12:53:06;2.33;;;1.60;;
20140;SDS011;10231;47.702;9.826;2023-07-13T12:55:59;1.97;;;1.50;;
20140;SDS011;10231;47.702;9.826;2023-07-13T12:58:28;1.30;;;1.20;;
20140;SDS011;10231;47.702;9.826;2023-07-13T13:00:58;1.97;;;1.37;;
20140;SDS011;10231;47.702;9.826;2023-07-13T13:06:43;1.23;;;1.13;;
20140;SDS011;10231;47.702;9.826;2023-07-13T13:08:48;3.43;;;1.43;;
20140;SDS011;10231;47.702;9.826;2023-07-13T13:11:21;2.63;;;1.97;;
20140;SDS011;10231;47.702;9.826;2023-07-13T13:13:48;1.53;;;1.43;;
20140;SDS011;10231;47.702;9.826;2023-07-13T13:16:19;1.63;;;1.53;;
20140;SDS011;10231;47.702;9.826;2023-07-13T13:18:45;1.60;;;1.50;;
20140;SDS011;10231;47.702;9.826;2023-07-13T13:21:11;1.53;;;1.03;;
20140;SDS011;10231;47.702;9.826;2023-07-13T13:23:37;1.43;;;1.23;;
20140;SDS011;10231;47.702;9.826;2023-07-13T13:26:05;1.50;;;1.43;;
20140;SDS011;10231;47.702;9.826;2023-07-13T13:28:34;1.73;;;1.63;;
20140;SDS011;10231;47.702;9.826;2023-07-13T13:30:59;2.93;;;2.67;;
20140;SDS011;10231;47.702;9.826;2023-07-13T13:33:25;2.40;;;1.90;;
20140;SDS011;10231;47.702;9.826;2023-07-13T13:35:50;1.60;;;1.27;;
20140;SDS011;10231;47.702;9.826;2023-07-13T13:38:17;3.67;;;1.50;;
20140;SDS011;10231;47.702;9.826;2023-07-13T13:40:51;1.53;;;1.30;;
20140;SDS011;10231;47.702;9.826;2023-07-13T13:43:24;2.50;;;1.70;;
20140;SDS011;10231;47.702;9.826;2023-07-13T13:45:52;1.93;;;1.40;;
20140;SDS011;10231;47.702;9.826;2023-07-13T13:50:58;1.63;;;1.43;;
20140;SDS011;10231;47.702;9.826;2023-07-13T13:53:26;2.10;;;1.67;;
20140;SDS011;10231;47.702;9.826;2023-07-13T13:55:51;2.00;;;1.70;;
20140;SDS011;10231;47.702;9.826;2023-07-13T13:58:18;1.93;;;1.63;;
20140;SDS011;10231;47.702;9.826;2023-07-13T14:00:44;3.97;;;1.83;;
20140;SDS011;10231;47.702;9.826;2023-07-13T14:03:14;1.50;;;1.40;;
20140;SDS011;10231;47.702;9.826;2023-07-13T14:05:42;1.87;;;1.70;;
20140;SDS011;10231;47.702;9.826;2023-07-13T14:08:14;1.60;;;1.50;;
20140;SDS011;10231;47.702;9.826;2023-07-13T14:10:41;1.87;;;1.77;;
20140;SDS011;10231;47.702;9.826;2023-07-13T14:13:14;2.50;;;1.50;;
20140;SDS011;10231;47.702;9.826;2023-07-13T14:15:43;1.50;;;1.40;;
20140;SDS011;10231;47.702;9.826;2023-07-13T14:18:09;1.93;;;1.27;;
20140;SDS011;10231;47.702;9.826;2023-07-13T14:20:35;1.63;;;1.53;;
20140;SDS011;10231;47.702;9.826;2023-07-13T14:23:01;1.37;;;1.30;;
20140;SDS011;10231;47.702;9.826;2023-07-13T14:25:26;1.87;;;1.20;;
20140;SDS011;10231;47.702;9.826;2023-07-13T14:27:53;1.73;;;1.63;;
20140;SDS011;10231;47.702;9.826;2023-07-13T14:30:23;2.10;;;1.90;;
20140;SDS011;10231;47.702;9.826;2023-07-13T14:32:49;1.67;;;1.57;;
20140;SDS011;10231;47.702;9.826;2023-07-13T14:35:16;1.70;;;1.37;;
20140;SDS011;10231;47.702;9.826;2023-07-13T14:37:45;3.37;;;1.67;;
20140;SDS011;10231;47.702;9.826;2023-07-13T14:40:32;1.40;;;1.30;;
20140;SDS011;10231;47.702;9.826;2023-07-13T14:42:58;5.13;;;1.40;;
20140;SDS011;10231;47.702;9.826;2023-07-13T14:45:24;0.93;;;0.93;;
20140;SDS011;10231;47.702;9.826;2023-07-13T14:47:50;1.90;;;1.17;;
20140;SDS011;10231;47.702;9.826;2023-07-13T14:50:17;1.17;;;1.10;;
20140;SDS011;10231;47.702;9.826;2023-07-13T14:52:45;1.10;;;1.10;;
20140;SDS011;10231;47.702;9.826;2023-07-13T14:55:13;2.37;;;1.20;;
20140;SDS011;10231;47.702;9.826;2023-07-13T14:57:41;1.30;;;1.20;;
20140;SDS011;10231;47.702;9.826;2023-07-13T15:00:13;0.83;;;0.80;;
20140;SDS011;10231;47.702;9.826;2023-07-13T15:02:40;2.30;;;1.23;;
20140;SDS011;10231;47.702;9.826;2023-07-13T15:05:14;0.90;;;0.90;;
20140;SDS011;10231;47.702;9.826;2023-07-13T15:07:46;1.00;;;0.87;;
20140;SDS011;10231;47.702;9.826;2023-07-13T15:10:22;0.70;;;0.70;;
20140;SDS011;10231;47.702;9.826;2023-07-13T15:12:51;1.10;;;0.97;;
20140;SDS011;10231;47.702;9.826;2023-07-13T15:15:17;1.43;;;0.90;;
20140;SDS011;10231;47.702;9.826;2023-07-13T15:17:44;2.30;;;0.80;;
20140;SDS011;10231;47.702;9.826;2023-07-13T15:20:32;1.10;;;1.10;;
20140;SDS011;10231;47.702;9.826;2023-07-13T15:23:01;2.10;;;1.10;;
20140;SDS011;10231;47.702;9.826;2023-07-13T15:25:28;1.57;;;1.10;;
20140;SDS011;10231;47.702;9.826;2023-07-13T15:27:55;3.07;;;1.00;;
20140;SDS011;10231;47.702;9.826;2023-07-13T15:30:22;1.30;;;0.90;;